createdAt,value
2022-08-30T00:01:32.610Z,4.38
2022-08-30T00:04:35.028Z,3.92
2022-08-30T00:07:36.662Z,4.20
2022-08-30T00:10:38.699Z,4.32
2022-08-30T00:13:41.187Z,4.18
2022-08-30T00:16:42.681Z,4.20
2022-08-30T00:19:44.418Z,4.25
2022-08-30T00:22:46.167Z,4.35
2022-08-30T00:25:47.859Z,4.40
2022-08-30T00:28:49.352Z,4.50
2022-08-30T00:31:50.880Z,4.32
2022-08-30T00:34:52.480Z,3.72
2022-08-30T00:37:54.031Z,4.07
2022-08-30T00:40:55.572Z,4.10
2022-08-30T00:43:57.196Z,4.35
2022-08-30T00:46:58.766Z,7.13
2022-08-30T00:50:00.359Z,4.20
2022-08-30T00:53:03.165Z,4.70
2022-08-30T00:56:04.968Z,4.78
2022-08-30T00:59:06.631Z,4.05
2022-08-30T01:02:08.236Z,4.63
2022-08-30T01:05:11.010Z,4.95
2022-08-30T01:08:18.477Z,5.38
2022-08-30T01:11:21.537Z,4.47
2022-08-30T01:14:25.838Z,4.57
2022-08-30T01:17:27.972Z,4.85
2022-08-30T01:20:54.588Z,5.07
2022-08-30T01:23:56.333Z,4.30
2022-08-30T01:26:58.020Z,5.45
2022-08-30T01:29:59.515Z,4.25
2022-08-30T01:33:02.674Z,4.78
2022-08-30T01:36:06.499Z,4.95
2022-08-30T01:39:08.649Z,5.35
2022-08-30T01:42:10.168Z,4.80
2022-08-30T01:45:12.009Z,4.63
2022-08-30T01:48:13.524Z,5.30
2022-08-30T01:51:15.251Z,4.78
2022-08-30T01:54:16.822Z,5.45
2022-08-30T01:57:20.966Z,4.85
2022-08-30T02:00:22.521Z,4.40
2022-08-30T02:03:24.664Z,4.63
2022-08-30T02:06:26.673Z,4.78
2022-08-30T02:12:30.418Z,5.07
2022-08-30T02:15:33.034Z,5.30
2022-08-30T02:18:43.313Z,4.97
2022-08-30T02:21:44.795Z,5.35
2022-08-30T02:24:46.533Z,5.70
2022-08-30T02:27:48.364Z,4.72
2022-08-30T02:30:49.950Z,4.82
2022-08-30T02:33:51.982Z,5.22
2022-08-30T02:36:53.502Z,4.90
2022-08-30T02:39:55.021Z,5.28
2022-08-30T02:42:57.003Z,5.05
2022-08-30T02:45:59.169Z,5.70
2022-08-30T02:49:13.171Z,4.70
2022-08-30T02:52:27.924Z,5.75
2022-08-30T02:55:29.661Z,4.88
2022-08-30T02:58:31.154Z,5.60
2022-08-30T03:01:36.541Z,5.53
2022-08-30T03:04:39.343Z,5.50
2022-08-30T03:07:41.337Z,5.40
2022-08-30T03:10:42.850Z,4.85
2022-08-30T03:13:44.339Z,5.70
2022-08-30T03:16:45.911Z,5.20
2022-08-30T03:19:47.473Z,5.65
2022-08-30T03:22:49.108Z,5.53
2022-08-30T03:25:50.683Z,5.50
2022-08-30T03:28:52.219Z,5.72
2022-08-30T03:31:53.990Z,5.30
2022-08-30T03:34:55.627Z,5.72
2022-08-30T03:37:58.100Z,5.20
2022-08-30T03:41:00.135Z,5.70
2022-08-30T03:47:04.023Z,6.05
2022-08-30T03:50:05.889Z,5.53
2022-08-30T03:53:07.539Z,5.10
2022-08-30T03:56:09.046Z,5.47
2022-08-30T03:59:10.560Z,5.63
2022-08-30T04:02:12.100Z,6.00
2022-08-30T04:05:14.758Z,6.15
2022-08-30T04:08:20.248Z,5.53
2022-08-30T04:11:22.024Z,6.88
2022-08-30T04:14:23.528Z,5.70
2022-08-30T04:17:25.048Z,5.63
2022-08-30T04:20:27.544Z,5.90
2022-08-30T04:23:29.263Z,6.07
2022-08-30T04:26:30.771Z,6.22
2022-08-30T04:29:32.931Z,5.80
2022-08-30T04:35:37.207Z,4.80
2022-08-30T04:38:39.396Z,5.85
2022-08-30T04:41:40.946Z,5.82
2022-08-30T04:44:42.479Z,5.80
2022-08-30T04:47:43.997Z,6.50
2022-08-30T04:50:45.708Z,5.78
2022-08-30T04:53:47.259Z,6.63
2022-08-30T04:56:48.757Z,6.55
2022-08-30T04:59:50.298Z,6.10
2022-08-30T05:02:51.791Z,6.15
2022-08-30T05:05:53.411Z,6.20
2022-08-30T05:08:55.461Z,6.32
2022-08-30T05:11:57.054Z,5.88
2022-08-30T05:14:58.704Z,6.32
2022-08-30T05:18:00.324Z,5.75
2022-08-30T05:21:10.481Z,6.57
2022-08-30T05:24:12.098Z,5.78
2022-08-30T05:27:13.692Z,6.70
2022-08-30T05:30:15.686Z,5.68
2022-08-30T05:33:17.287Z,5.65
2022-08-30T05:36:19.671Z,6.15
2022-08-30T05:39:21.311Z,6.07
2022-08-30T05:42:23.698Z,5.60
2022-08-30T05:45:25.325Z,6.65
2022-08-30T05:48:26.918Z,5.85
2022-08-30T05:51:29.112Z,5.63
2022-08-30T05:54:30.707Z,5.88
2022-08-30T05:57:33.893Z,5.90
2022-08-30T06:00:38.075Z,6.22
2022-08-30T06:03:39.667Z,5.65
2022-08-30T06:06:42.446Z,6.07
2022-08-30T06:09:44.410Z,5.43
2022-08-30T06:15:47.434Z,5.10
2022-08-30T06:18:49.038Z,6.03
2022-08-30T06:21:50.838Z,5.70
2022-08-30T06:24:59.354Z,6.20
2022-08-30T06:28:00.948Z,5.97
2022-08-30T06:31:05.377Z,5.80
2022-08-30T06:34:07.117Z,5.85
2022-08-30T06:37:08.646Z,8.07
2022-08-30T06:40:11.195Z,8.07
2022-08-30T06:43:12.758Z,7.65
2022-08-30T06:46:16.626Z,6.15
2022-08-30T06:49:18.268Z,7.35
2022-08-30T06:52:19.779Z,6.13
2022-08-30T06:55:21.371Z,5.72
2022-08-30T06:58:22.918Z,6.00
2022-08-30T07:01:25.822Z,5.80
2022-08-30T07:04:28.010Z,6.25
2022-08-30T07:07:29.515Z,6.30
2022-08-30T07:10:31.438Z,5.55
2022-08-30T07:16:35.659Z,5.85
2022-08-30T07:19:37.235Z,5.47
2022-08-30T07:22:38.830Z,6.50
2022-08-30T07:25:41.387Z,6.07
2022-08-30T07:28:43.914Z,5.55
2022-08-30T07:31:45.595Z,5.50
2022-08-30T07:34:47.237Z,6.45
2022-08-30T07:37:53.316Z,5.38
2022-08-30T07:40:55.120Z,6.32
2022-08-30T07:46:58.190Z,5.60
2022-08-30T07:50:00.611Z,4.65
2022-08-30T07:53:02.270Z,4.90
2022-08-30T07:59:06.552Z,5.22
2022-08-30T08:05:12.794Z,5.18
2022-08-30T08:08:18.138Z,4.55
2022-08-30T08:11:24.720Z,4.35
2022-08-30T08:14:26.412Z,4.75
2022-08-30T08:17:28.017Z,4.50
2022-08-30T08:23:32.500Z,4.68
2022-08-30T08:26:35.807Z,4.53
2022-08-30T08:29:37.411Z,4.20
2022-08-30T08:32:39.550Z,3.90
2022-08-30T08:35:43.439Z,3.92
2022-08-30T08:38:45.143Z,3.97
2022-08-30T08:41:52.760Z,3.70
2022-08-30T08:45:07.450Z,4.28
2022-08-30T08:48:32.029Z,4.00
2022-08-30T08:52:05.790Z,3.95
2022-08-30T08:55:10.393Z,3.88
2022-08-30T08:58:26.234Z,4.47
2022-08-30T09:01:29.930Z,4.10
2022-08-30T09:04:34.690Z,3.85
2022-08-30T09:07:38.432Z,4.10
2022-08-30T09:10:50.582Z,3.80
2022-08-30T09:13:52.744Z,3.78
2022-08-30T09:17:02.854Z,3.80
2022-08-30T09:20:05.359Z,4.22
2022-08-30T09:23:16.106Z,3.60
2022-08-30T09:26:29.012Z,3.70
2022-08-30T09:29:31.473Z,3.72
2022-08-30T09:32:35.281Z,4.43
2022-08-30T09:35:48.341Z,3.60
2022-08-30T09:38:57.448Z,3.80
2022-08-30T09:42:28.987Z,4.07
2022-08-30T09:48:47.425Z,4.43
2022-08-30T09:51:59.314Z,3.72
2022-08-30T09:55:19.857Z,3.33
2022-08-30T09:58:43.535Z,4.38
2022-08-30T10:01:47.598Z,3.95
2022-08-30T10:05:11.994Z,4.15
2022-08-30T10:08:16.510Z,3.55
2022-08-30T10:11:48.478Z,4.25
2022-08-30T10:14:51.469Z,3.17
2022-08-30T10:17:59.002Z,3.78
2022-08-30T10:21:18.932Z,3.30
2022-08-30T10:24:24.398Z,4.03
2022-08-30T10:27:30.181Z,3.78
2022-08-30T10:30:33.911Z,3.95
2022-08-30T10:33:41.147Z,4.00
2022-08-30T10:36:45.045Z,3.78
2022-08-30T10:39:48.958Z,3.28
2022-08-30T10:42:51.150Z,3.58
2022-08-30T10:45:53.689Z,3.20
2022-08-30T10:48:55.315Z,3.20
2022-08-30T10:52:11.981Z,3.90
2022-08-30T10:55:19.515Z,3.40
2022-08-30T10:58:21.165Z,3.80
2022-08-30T11:01:46.539Z,3.63
2022-08-30T11:04:53.240Z,3.60
2022-08-30T11:08:01.166Z,3.10
2022-08-30T11:11:31.036Z,3.15
2022-08-30T11:14:32.731Z,3.20
2022-08-30T11:17:55.035Z,3.83
2022-08-30T11:21:24.658Z,3.80
2022-08-30T11:24:26.313Z,4.05
2022-08-30T11:27:49.314Z,3.88
2022-08-30T11:30:53.223Z,4.03
2022-08-30T11:33:57.135Z,3.60
2022-08-30T11:37:03.336Z,3.67
2022-08-30T11:40:20.411Z,3.65
2022-08-30T11:43:34.029Z,3.90
2022-08-30T11:46:36.895Z,4.55
2022-08-30T11:50:09.888Z,4.15
2022-08-30T11:53:29.293Z,4.45
2022-08-30T11:56:49.136Z,3.42
2022-08-30T11:59:50.610Z,3.75
2022-08-30T12:02:59.359Z,4.05
2022-08-30T12:06:07.970Z,3.63
2022-08-30T12:09:11.314Z,4.15
2022-08-30T12:12:38.350Z,4.13
2022-08-30T12:16:22.040Z,3.80
2022-08-30T12:19:24.567Z,3.88
2022-08-30T12:22:27.092Z,3.90
2022-08-30T12:25:33.205Z,3.95
2022-08-30T12:28:34.724Z,3.90
2022-08-30T12:31:49.836Z,3.90
2022-08-30T12:34:56.454Z,3.95
2022-08-30T12:38:02.098Z,3.63
2022-08-30T12:41:05.612Z,4.07
2022-08-30T12:44:10.000Z,4.25
2022-08-30T12:47:12.693Z,3.80
2022-08-30T12:50:25.530Z,3.50
2022-08-30T12:53:45.744Z,3.60
2022-08-30T12:57:19.143Z,3.50
2022-08-30T13:00:35.093Z,3.20
2022-08-30T13:03:36.723Z,3.50
2022-08-30T13:06:39.775Z,3.45
2022-08-30T13:09:42.639Z,3.17
2022-08-30T13:13:01.101Z,3.88
2022-08-30T13:16:26.119Z,3.75
2022-08-30T13:19:39.438Z,3.80
2022-08-30T13:22:43.320Z,3.70
2022-08-30T13:25:45.076Z,3.60
2022-08-30T13:28:54.495Z,3.40
2022-08-30T13:31:57.097Z,3.67
2022-08-30T13:34:58.766Z,3.42
2022-08-30T13:38:00.867Z,3.22
2022-08-30T13:41:02.557Z,3.80
2022-08-30T13:44:13.553Z,3.63
2022-08-30T13:47:34.566Z,3.85
2022-08-30T13:50:36.865Z,3.50
2022-08-30T13:53:54.440Z,3.10
2022-08-30T13:56:56.314Z,2.97
2022-08-30T13:59:58.075Z,2.72
2022-08-30T14:03:00.204Z,3.38
2022-08-30T14:06:29.248Z,3.33
2022-08-30T14:09:23.653Z,3.05
2022-08-30T14:15:48.409Z,3.08
2022-08-30T14:18:51.284Z,3.80
2022-08-30T14:21:52.861Z,3.08
2022-08-30T14:24:54.514Z,3.55
2022-08-30T14:27:57.029Z,3.65
2022-08-30T14:30:58.646Z,3.42
2022-08-30T14:34:01.720Z,2.72
2022-08-30T14:37:06.789Z,3.28
2022-08-30T14:40:09.334Z,2.88
2022-08-30T14:43:10.980Z,3.45
2022-08-30T14:46:12.686Z,4.03
2022-08-30T14:49:14.440Z,3.08
2022-08-30T14:52:16.073Z,3.75
2022-08-30T14:55:17.722Z,3.38
2022-08-30T14:58:19.386Z,3.00
2022-08-30T15:01:22.366Z,3.22
2022-08-30T15:04:24.162Z,3.10
2022-08-30T15:07:26.855Z,3.42
2022-08-30T15:10:28.692Z,3.55
2022-08-30T15:13:30.300Z,3.00
2022-08-30T15:16:35.616Z,3.20
2022-08-30T15:19:37.356Z,3.05
2022-08-30T15:22:40.264Z,3.13
2022-08-30T15:25:43.108Z,2.88
2022-08-30T15:28:44.803Z,2.95
2022-08-30T15:31:49.836Z,2.78
2022-08-30T15:34:55.855Z,3.33
2022-08-30T15:37:57.778Z,2.92
2022-08-30T15:41:03.586Z,2.60
2022-08-30T15:44:05.993Z,2.70
2022-08-30T15:47:08.606Z,3.30
2022-08-30T15:50:10.320Z,2.72
2022-08-30T15:53:11.888Z,3.20
2022-08-30T15:56:13.988Z,2.90
2022-08-30T15:59:15.650Z,3.28
2022-08-30T16:02:17.291Z,3.00
2022-08-30T16:05:19.568Z,3.40
2022-08-30T16:08:21.117Z,3.25
2022-08-30T16:11:22.880Z,3.45
2022-08-30T16:14:24.550Z,3.00
2022-08-30T16:17:26.590Z,3.40
2022-08-30T16:20:28.236Z,3.20
2022-08-30T16:23:29.862Z,3.25
2022-08-30T16:26:35.466Z,3.55
2022-08-30T16:29:37.098Z,3.38
2022-08-30T16:32:39.041Z,3.70
2022-08-30T16:35:42.111Z,3.55
2022-08-30T16:38:44.667Z,3.60
2022-08-30T16:41:46.563Z,3.33
2022-08-30T16:44:49.872Z,3.80
2022-08-30T16:47:52.097Z,3.42
2022-08-30T16:50:53.762Z,3.47
2022-08-30T16:53:56.486Z,3.13
2022-08-30T16:56:58.103Z,3.47
2022-08-30T16:59:59.874Z,3.33
2022-08-30T17:03:01.452Z,3.35
2022-08-30T17:06:03.449Z,3.40
2022-08-30T17:09:06.389Z,3.75
2022-08-30T17:12:08.394Z,3.47
2022-08-30T17:15:10.850Z,3.30
2022-08-30T17:18:13.241Z,3.30
2022-08-30T17:21:15.799Z,2.72
2022-08-30T17:24:17.439Z,3.72
2022-08-30T17:27:19.527Z,3.25
2022-08-30T17:30:21.258Z,3.80
2022-08-30T17:33:22.969Z,3.78
2022-08-30T17:36:24.960Z,3.70
2022-08-30T17:39:26.938Z,3.33
2022-08-30T17:42:29.678Z,3.38
2022-08-30T17:45:31.648Z,3.83
2022-08-30T17:48:35.351Z,3.47
2022-08-30T17:51:40.813Z,3.33
2022-08-30T17:54:43.207Z,2.92
2022-08-30T17:57:44.890Z,4.43
2022-08-30T18:00:46.550Z,3.45
2022-08-30T18:03:57.108Z,3.15
2022-08-30T18:07:03.782Z,3.80
2022-08-30T18:10:05.684Z,3.40
2022-08-30T18:13:07.251Z,2.85
2022-08-30T18:16:10.254Z,3.72
2022-08-30T18:19:13.868Z,3.90
2022-08-30T18:22:16.209Z,3.83
2022-08-30T18:25:17.853Z,3.80
2022-08-30T18:28:19.544Z,3.42
2022-08-30T18:31:22.112Z,3.70
2022-08-30T18:34:23.789Z,3.80
2022-08-30T18:37:25.368Z,3.80
2022-08-30T18:40:27.053Z,3.78
2022-08-30T18:43:30.857Z,3.83
2022-08-30T18:46:32.862Z,3.83
2022-08-30T18:49:35.021Z,3.90
2022-08-30T18:52:36.797Z,3.63
2022-08-30T18:55:38.384Z,4.22
2022-08-30T18:58:40.493Z,5.03
2022-08-30T19:01:48.649Z,5.55
2022-08-30T19:04:50.801Z,5.07
2022-08-30T19:07:55.069Z,5.30
2022-08-30T19:14:19.036Z,4.35
2022-08-30T19:17:20.613Z,4.55
2022-08-30T19:20:22.498Z,3.95
2022-08-30T19:23:27.083Z,3.97
2022-08-30T19:26:28.834Z,3.83
2022-08-30T19:29:30.478Z,3.45
2022-08-30T19:32:32.509Z,3.80
2022-08-30T19:35:34.102Z,3.25
2022-08-30T19:38:35.916Z,3.00
2022-08-30T19:41:37.511Z,2.83
2022-08-30T19:44:39.119Z,3.05
2022-08-30T19:47:40.731Z,2.67
2022-08-30T19:50:42.350Z,2.70
2022-08-30T19:53:44.076Z,3.00
2022-08-30T19:56:45.660Z,2.78
2022-08-30T19:59:49.689Z,2.72
2022-08-30T20:02:52.075Z,2.65
2022-08-30T20:05:53.845Z,2.60
2022-08-30T20:08:56.546Z,2.47
2022-08-30T20:11:59.546Z,2.47
2022-08-30T20:15:02.536Z,2.50
2022-08-30T20:18:06.257Z,2.65
2022-08-30T20:21:26.232Z,2.45
2022-08-30T20:24:28.524Z,2.53
2022-08-30T20:24:31.987Z,4.53
2022-08-30T20:27:30.302Z,2.55
2022-08-30T20:30:32.365Z,2.60
2022-08-30T20:33:37.457Z,2.30
2022-08-30T20:36:40.379Z,2.78
2022-08-30T20:39:41.951Z,2.60
2022-08-30T20:42:45.420Z,2.90
2022-08-30T20:45:47.291Z,2.65
2022-08-30T20:48:48.899Z,2.50
2022-08-30T20:54:56.065Z,2.75
2022-08-30T21:00:59.058Z,2.90
2022-08-30T21:04:00.627Z,2.92
2022-08-30T21:10:04.756Z,2.30
2022-08-30T21:13:06.260Z,2.50
2022-08-30T21:19:09.281Z,3.33
2022-08-30T21:25:12.356Z,3.67
2022-08-30T21:31:20.710Z,3.25
2022-08-30T21:34:22.374Z,3.10
2022-08-30T21:40:25.465Z,3.15
2022-08-30T21:46:28.787Z,3.58
2022-08-30T21:49:30.423Z,2.90
2022-08-30T21:55:33.563Z,2.72
2022-08-30T22:01:37.710Z,2.55
2022-08-30T22:04:40.555Z,2.60
2022-08-30T22:07:42.060Z,3.83
2022-08-30T22:10:44.401Z,3.55
2022-08-30T22:13:48.281Z,3.28
2022-08-30T22:16:50.082Z,3.38
2022-08-30T22:19:51.628Z,3.03
2022-08-30T22:22:53.118Z,3.42
2022-08-30T22:25:54.638Z,3.75
2022-08-30T22:28:56.162Z,3.45
2022-08-30T22:31:58.272Z,3.95
2022-08-30T22:34:59.879Z,3.10
2022-08-30T22:38:01.419Z,3.78
2022-08-30T22:41:02.954Z,4.00
2022-08-30T22:44:04.484Z,4.10
2022-08-30T22:47:06.341Z,3.90
2022-08-30T22:50:08.198Z,3.58
2022-08-30T22:53:09.895Z,3.45
2022-08-30T22:59:16.825Z,4.55
2022-08-30T23:02:18.490Z,3.88
2022-08-30T23:08:21.946Z,3.80
2022-08-30T23:11:23.691Z,3.78
2022-08-30T23:14:25.208Z,4.25
2022-08-30T23:17:26.698Z,4.25
2022-08-30T23:20:32.792Z,4.13
2022-08-30T23:23:52.910Z,3.70
2022-08-30T23:27:13.254Z,3.65
2022-08-30T23:30:33.428Z,4.63
2022-08-30T23:33:53.828Z,4.72
2022-08-30T23:37:13.872Z,4.65
2022-08-30T23:40:33.974Z,4.95
2022-08-30T23:43:54.284Z,5.45
2022-08-30T23:47:14.591Z,5.95
2022-08-30T23:50:34.687Z,7.35
2022-08-30T23:53:54.906Z,7.53
2022-08-30T23:57:15.054Z,11.23
